createdAt,value
2023-01-11T00:00:13.683Z,1010.1
2023-01-11T00:01:57.418Z,1005.3
2023-01-11T00:03:41.091Z,1005.6
2023-01-11T00:05:24.789Z,1002.6
2023-01-11T00:07:08.491Z,1003.6
2023-01-11T00:08:52.194Z,1004.5
2023-01-11T00:10:35.896Z,997.4
2023-01-11T00:12:19.604Z,995.9
2023-01-11T00:14:03.299Z,996.5
2023-01-11T00:15:47.007Z,991.1
2023-01-11T00:17:30.697Z,989
2023-01-11T00:19:14.411Z,986.2
2023-01-11T00:20:58.119Z,982.6
2023-01-11T00:22:41.813Z,982.9
2023-01-11T00:24:25.519Z,982.1
2023-01-11T00:26:09.217Z,980.9
2023-01-11T00:27:52.920Z,983
2023-01-11T00:29:36.644Z,982.9
2023-01-11T00:31:20.336Z,980.2
2023-01-11T00:33:04.033Z,978
2023-01-11T00:34:47.727Z,979
2023-01-11T00:36:31.435Z,982.2
2023-01-11T00:38:15.142Z,979.2
2023-01-11T00:39:58.847Z,975.2
2023-01-11T00:41:42.545Z,977
2023-01-11T00:43:26.244Z,981.4
2023-01-11T00:45:09.951Z,978.8
2023-01-11T00:46:53.651Z,979.9
2023-01-11T00:48:37.356Z,979.2
2023-01-11T00:50:21.059Z,979.2
2023-01-11T00:52:04.770Z,978.2
2023-01-11T00:53:48.464Z,977.6
2023-01-11T00:55:32.180Z,975.5
2023-01-11T00:57:15.870Z,981.2
2023-01-11T00:58:59.573Z,977.8
2023-01-11T01:00:43.272Z,970
2023-01-11T01:02:26.974Z,968.6
2023-01-11T01:04:10.673Z,992.4
2023-01-11T01:05:54.377Z,1030.1
2023-01-11T01:07:38.076Z,1028.4
2023-01-11T01:09:21.783Z,1022.5
2023-01-11T01:11:05.491Z,1015.1
2023-01-11T01:12:49.210Z,1010.9
2023-01-11T01:14:32.883Z,1004.8
2023-01-11T01:16:16.593Z,994.5
2023-01-11T01:18:00.308Z,987
2023-01-11T01:19:43.994Z,987.1
2023-01-11T01:21:27.700Z,987.7
2023-01-11T01:23:11.544Z,985.4
2023-01-11T01:24:55.116Z,986.9
2023-01-11T01:26:38.818Z,986.8
2023-01-11T01:28:22.535Z,988.3
2023-01-11T01:30:06.220Z,986.9
2023-01-11T01:31:49.921Z,985.1
2023-01-11T01:33:33.620Z,986.1
2023-01-11T01:35:17.322Z,979.2
2023-01-11T01:37:01.024Z,978.4
2023-01-11T01:38:44.730Z,979.2
2023-01-11T01:40:28.439Z,978.5
2023-01-11T01:42:12.146Z,976.4
2023-01-11T01:43:55.847Z,978.5
2023-01-11T01:45:39.567Z,982.5
2023-01-11T01:47:23.241Z,979.4
2023-01-11T01:49:06.945Z,981.2
2023-01-11T01:50:50.650Z,983.2
2023-01-11T01:52:34.354Z,983
2023-01-11T01:54:18.050Z,983.9
2023-01-11T01:56:01.755Z,981.8
2023-01-11T01:57:45.471Z,979.3
2023-01-11T01:59:29.168Z,978.7
2023-01-11T02:01:12.869Z,981.9
2023-01-11T02:02:56.570Z,985.2
2023-01-11T02:04:40.287Z,980.8
2023-01-11T02:06:23.980Z,980.7
2023-01-11T02:08:07.681Z,982.5
2023-01-11T02:09:51.395Z,981.3
2023-01-11T02:11:35.086Z,980.4
2023-01-11T02:13:18.787Z,980.9
2023-01-11T02:15:02.492Z,978.4
2023-01-11T02:16:46.195Z,979
2023-01-11T02:18:29.898Z,977
2023-01-11T02:20:13.596Z,976.7
2023-01-11T02:21:57.307Z,976.7
2023-01-11T02:23:41.013Z,974.5
2023-01-11T02:25:24.716Z,971.5
2023-01-11T02:27:08.412Z,970.4
2023-01-11T02:28:52.119Z,973.4
2023-01-11T02:30:35.822Z,974
2023-01-11T02:32:19.526Z,973
2023-01-11T02:34:03.224Z,971.1
2023-01-11T02:35:46.926Z,968.7
2023-01-11T02:37:30.631Z,973.4
2023-01-11T02:39:14.323Z,975.7
2023-01-11T02:40:58.031Z,975.4
2023-01-11T02:42:41.803Z,974.5
2023-01-11T02:44:25.438Z,972.6
2023-01-11T02:46:09.136Z,973.8
2023-01-11T02:47:52.844Z,974.9
2023-01-11T02:49:36.547Z,974.3
2023-01-11T02:51:20.255Z,972.1
2023-01-11T02:53:03.948Z,971.6
2023-01-11T02:54:47.652Z,974
2023-01-11T02:56:31.411Z,976.5
2023-01-11T02:58:15.071Z,971.1
2023-01-11T02:59:58.762Z,970.5
2023-01-11T03:01:42.469Z,972.9
2023-01-11T03:03:26.169Z,974.7
2023-01-11T03:05:09.871Z,976.2
2023-01-11T03:06:53.571Z,976.5
2023-01-11T03:08:37.282Z,975.4
2023-01-11T03:10:20.979Z,976.5
2023-01-11T03:12:04.684Z,977.6
2023-01-11T03:13:48.387Z,984.6
2023-01-11T03:15:32.093Z,982.6
2023-01-11T03:17:15.789Z,980.5
2023-01-11T03:18:59.504Z,975.7
2023-01-11T03:20:43.202Z,972
2023-01-11T03:22:26.901Z,969.5
2023-01-11T03:24:10.605Z,967.6
2023-01-11T03:25:54.305Z,965.2
2023-01-11T03:27:38.008Z,962.6
2023-01-11T03:29:21.718Z,965.3
2023-01-11T03:31:05.623Z,964.6
2023-01-11T03:32:49.118Z,965.2
2023-01-11T03:34:32.812Z,966.4
2023-01-11T03:36:16.525Z,963.2
2023-01-11T03:38:00.231Z,960.1
2023-01-11T03:39:43.922Z,960.4
2023-01-11T03:41:27.629Z,960.3
2023-01-11T03:43:11.348Z,962
2023-01-11T03:44:55.028Z,964.4
2023-01-11T03:46:38.736Z,963.5
2023-01-11T03:48:22.445Z,963
2023-01-11T03:50:06.142Z,961
2023-01-11T03:51:49.847Z,966
2023-01-11T03:53:33.550Z,960.5
2023-01-11T03:55:17.256Z,958.9
2023-01-11T03:57:00.957Z,961
2023-01-11T03:58:44.660Z,960.9
2023-01-11T04:00:28.363Z,960.6
2023-01-11T04:02:12.066Z,962.7
2023-01-11T04:03:55.750Z,958.5
2023-01-11T04:05:39.471Z,962.6
2023-01-11T04:07:23.174Z,961.2
2023-01-11T04:09:06.874Z,961.5
2023-01-11T04:10:50.584Z,962.8
2023-01-11T04:12:34.289Z,964.9
2023-01-11T04:14:17.984Z,965.6
2023-01-11T04:16:01.775Z,966.1
2023-01-11T04:17:45.400Z,962.4
2023-01-11T04:19:29.099Z,960.5
2023-01-11T04:21:12.812Z,960.9
2023-01-11T04:24:40.223Z,964.1
2023-01-11T04:26:23.936Z,965.3
2023-01-11T04:28:07.598Z,962.5
2023-01-11T04:29:51.331Z,959.4
2023-01-11T04:31:35.011Z,959.2
2023-01-11T04:33:18.717Z,955.5
2023-01-11T04:35:02.426Z,958
2023-01-11T04:36:46.125Z,964.4
2023-01-11T04:38:29.831Z,964
2023-01-11T04:40:13.547Z,961.8
2023-01-11T04:41:57.228Z,963.9
2023-01-11T04:43:40.940Z,965.5
2023-01-11T04:45:24.640Z,965.6
2023-01-11T04:47:08.339Z,964.9
2023-01-11T04:48:52.045Z,969.5
2023-01-11T04:50:35.758Z,971
2023-01-11T04:52:19.508Z,969.2
2023-01-11T04:54:03.159Z,966.8
2023-01-11T04:55:46.855Z,963.5
2023-01-11T04:57:30.562Z,967.9
2023-01-11T04:59:14.516Z,965.1
2023-01-11T05:00:57.961Z,960.8
2023-01-11T05:02:41.667Z,959.9
2023-01-11T05:04:25.384Z,962.3
2023-01-11T05:06:09.175Z,964.4
2023-01-11T05:07:52.797Z,967.2
2023-01-11T05:09:36.480Z,1048
2023-01-11T05:11:20.187Z,1060.2
2023-01-11T05:13:03.887Z,1048.2
2023-01-11T05:14:47.690Z,1032.5
2023-01-11T05:16:31.289Z,1011
2023-01-11T05:18:14.998Z,1014.3
2023-01-11T05:19:58.688Z,1013
2023-01-11T05:21:42.398Z,1010
2023-01-11T05:23:26.095Z,1008.1
2023-01-11T05:25:09.907Z,1004.6
2023-01-11T05:26:53.510Z,1004
2023-01-11T05:28:37.206Z,1002.4
2023-01-11T05:30:20.917Z,1003.1
2023-01-11T05:32:04.612Z,1005
2023-01-11T05:33:48.318Z,1005.4
2023-01-11T05:35:32.030Z,1007.4
2023-01-11T05:37:15.734Z,1005.1
2023-01-11T05:38:59.426Z,1004.1
2023-01-11T05:40:43.134Z,1004.4
2023-01-11T05:42:26.833Z,1006.9
2023-01-11T05:44:10.531Z,1009.7
2023-01-11T05:45:54.241Z,1012.8
2023-01-11T05:47:37.938Z,1012.2
2023-01-11T05:49:21.652Z,1008.6
2023-01-11T05:51:05.378Z,1005.3
2023-01-11T05:52:49.050Z,1006.5
2023-01-11T05:54:32.743Z,1016.2
2023-01-11T05:56:16.455Z,1047.3
2023-01-11T05:58:00.147Z,1052.4
2023-01-11T05:59:43.857Z,1051.4
2023-01-11T06:01:27.553Z,1045.3
2023-01-11T06:03:11.264Z,1033.7
2023-01-11T06:04:54.979Z,1041.1
2023-01-11T06:06:38.666Z,1041.9
2023-01-11T06:08:22.365Z,1042.8
2023-01-11T06:10:06.074Z,1042.2
2023-01-11T06:11:49.768Z,1043.4
2023-01-11T06:13:33.470Z,1044.1
2023-01-11T06:15:17.187Z,1042.1
2023-01-11T06:17:00.868Z,1039.2
2023-01-11T06:18:44.575Z,1043.8
2023-01-11T06:20:28.285Z,1047.8
2023-01-11T06:22:11.982Z,1048.8
2023-01-11T06:23:55.703Z,1046.3
2023-01-11T06:25:39.386Z,1049
2023-01-11T06:27:23.088Z,1056.4
2023-01-11T06:29:06.805Z,1085.2
2023-01-11T06:30:50.497Z,1125.6
2023-01-11T06:32:34.200Z,1117.9
2023-01-11T06:34:17.915Z,1125.9
2023-01-11T06:36:01.613Z,1123.8
2023-01-11T06:37:45.314Z,1130.3
2023-01-11T06:39:29.013Z,1138.2
2023-01-11T06:41:12.710Z,1136.5
2023-01-11T06:42:56.411Z,1156.8
2023-01-11T06:44:40.113Z,1172.5
2023-01-11T06:46:23.816Z,1171.1
2023-01-11T06:48:07.604Z,1184.3
2023-01-11T06:49:51.227Z,1206.1
2023-01-11T06:51:34.925Z,1213.3
2023-01-11T06:53:18.641Z,1221.3
2023-01-11T06:55:02.330Z,1227.1
2023-01-11T06:56:46.031Z,1230.9
2023-01-11T06:58:29.749Z,1232.4
2023-01-11T07:00:13.542Z,1227.1
2023-01-11T07:01:57.178Z,1223.5
2023-01-11T07:03:40.842Z,1220.5
2023-01-11T07:05:24.562Z,1188.4
2023-01-11T07:07:08.290Z,1192.1
2023-01-11T07:08:51.954Z,1194
2023-01-11T07:10:35.658Z,1190.9
2023-01-11T07:12:19.363Z,1188
2023-01-11T07:14:03.069Z,1191.5
2023-01-11T07:15:46.758Z,1189.9
2023-01-11T07:17:30.465Z,1185
2023-01-11T07:19:14.249Z,1182.7
2023-01-11T07:20:57.901Z,1181.2
2023-01-11T07:22:41.570Z,1178.2
2023-01-11T07:24:25.283Z,1179.1
2023-01-11T07:26:08.976Z,1179.6
2023-01-11T07:27:52.671Z,1175.5
2023-01-11T07:29:36.382Z,1174.7
2023-01-11T07:31:20.094Z,1177.4
2023-01-11T07:33:03.885Z,1177.2
2023-01-11T07:34:47.488Z,1176
2023-01-11T07:36:31.193Z,1176.5
2023-01-11T07:38:14.921Z,1174.7
2023-01-11T07:39:58.607Z,1169.5
2023-01-11T07:41:42.299Z,1161.4
2023-01-11T07:43:26.127Z,1152.2
2023-01-11T07:45:09.720Z,1149.8
2023-01-11T07:46:53.557Z,1152.3
2023-01-11T07:48:37.131Z,1147.9
2023-01-11T07:50:20.815Z,1147.4
2023-01-11T07:52:04.524Z,1145.7
2023-01-11T07:53:48.239Z,1143.5
2023-01-11T07:55:31.916Z,1142
2023-01-11T07:57:15.645Z,1135.7
2023-01-11T07:58:59.367Z,1136.3
2023-01-11T08:00:43.042Z,1135.2
2023-01-11T08:02:26.730Z,1132.9
2023-01-11T08:04:10.440Z,1129.9
2023-01-11T08:05:54.294Z,1128.1
2023-01-11T08:07:38.044Z,1128.4
2023-01-11T08:09:21.545Z,1123.9
2023-01-11T08:11:05.250Z,1117
2023-01-11T08:12:48.946Z,1109.2
2023-01-11T08:14:32.768Z,1115
2023-01-11T08:16:16.355Z,1119
2023-01-11T08:18:00.129Z,1115.2
2023-01-11T08:19:43.852Z,1110.2
2023-01-11T08:21:27.467Z,1109.1
2023-01-11T08:23:11.283Z,1105.5
2023-01-11T08:24:54.875Z,1104.5
2023-01-11T08:26:38.623Z,1101.2
2023-01-11T08:28:22.328Z,1097.7
2023-01-11T08:30:06.074Z,1096.5
2023-01-11T08:31:49.742Z,1095.7
2023-01-11T08:33:33.392Z,1093.9
2023-01-11T08:35:17.091Z,1089.2
2023-01-11T08:37:00.789Z,1092.5
2023-01-11T08:38:44.543Z,1086.2
2023-01-11T08:40:28.288Z,1077.2
2023-01-11T08:42:11.908Z,1075.6
2023-01-11T08:43:55.626Z,1079.1
2023-01-11T08:45:39.308Z,1081.2
2023-01-11T08:47:23.035Z,1079.6
2023-01-11T08:49:06.725Z,1077.9
2023-01-11T08:50:50.460Z,1082.3
2023-01-11T08:52:34.132Z,1087.8
2023-01-11T08:54:17.814Z,1094.4
2023-01-11T08:56:01.723Z,1093.3
2023-01-11T08:57:45.246Z,1088.4
2023-01-11T08:59:28.965Z,1078
2023-01-11T09:01:12.657Z,1075.7
2023-01-11T09:02:56.338Z,1073.6
2023-01-11T09:04:40.030Z,1067
2023-01-11T09:06:23.743Z,1065.1
2023-01-11T09:08:07.602Z,1063.2
2023-01-11T09:09:51.265Z,1061.6
2023-01-11T09:11:34.917Z,1059
2023-01-11T09:13:18.659Z,1057.8
2023-01-11T09:15:02.296Z,1053.9
2023-01-11T09:16:45.978Z,1051.9
2023-01-11T09:18:29.666Z,1051.1
2023-01-11T09:20:13.363Z,1046.5
2023-01-11T09:21:57.074Z,1043.8
2023-01-11T09:23:40.765Z,1045.4
2023-01-11T09:25:24.466Z,1047.8
2023-01-11T09:27:08.171Z,1044.7
2023-01-11T09:28:51.954Z,1040.2
2023-01-11T09:30:35.584Z,1038.9
2023-01-11T09:32:19.352Z,1037.7
2023-01-11T09:34:02.978Z,1038.1
2023-01-11T09:35:46.695Z,1039.2
2023-01-11T09:37:30.374Z,1038.8
2023-01-11T09:39:14.091Z,1037.6
2023-01-11T09:40:57.800Z,1038.7
2023-01-11T09:42:41.572Z,1042.9
2023-01-11T09:44:25.309Z,1043
2023-01-11T09:46:08.893Z,1045.6
2023-01-11T09:47:52.692Z,1047.8
2023-01-11T09:49:36.306Z,1054
2023-01-11T09:51:20.086Z,1051.5
2023-01-11T09:53:03.719Z,1048.7
2023-01-11T09:54:47.513Z,1051.3
2023-01-11T09:56:31.240Z,1053.2
2023-01-11T09:58:14.851Z,1049.1
2023-01-11T09:59:58.538Z,1050.6
2023-01-11T10:01:42.246Z,1048.4
2023-01-11T10:03:25.919Z,1045.4
2023-01-11T10:05:09.623Z,1047.6
2023-01-11T10:06:53.371Z,1047.1
2023-01-11T10:08:37.030Z,1044.4
2023-01-11T10:18:20.521Z,1047.3
2023-01-11T10:18:20.559Z,1043.4
2023-01-11T10:18:20.571Z,1047.2
2023-01-11T10:18:20.577Z,1046
2023-01-11T10:18:21.369Z,1046.5
2023-01-11T10:18:59.241Z,1046.1
2023-01-11T10:20:42.947Z,1044.9
2023-01-11T10:22:26.659Z,1048.5
2023-01-11T10:24:10.348Z,1047.6
2023-01-11T10:25:54.060Z,1046.3
2023-01-11T10:27:37.761Z,1049
2023-01-11T10:29:21.515Z,1052
2023-01-11T10:31:05.237Z,913
2023-01-11T10:32:48.862Z,754.1
2023-01-11T10:34:32.570Z,910.3
2023-01-11T10:36:16.266Z,1052.6
2023-01-11T10:38:00.000Z,1197.2
2023-01-11T10:39:43.679Z,1157.7
2023-01-11T10:41:27.398Z,1146.9
2023-01-11T10:43:11.084Z,1130.5
2023-01-11T10:44:54.791Z,1125.9
2023-01-11T10:46:38.614Z,1121.2
2023-01-11T10:48:22.367Z,1116.6
2023-01-11T10:50:06.071Z,1063.2
2023-01-11T10:51:49.700Z,1072.1
2023-01-11T10:53:33.288Z,1072.6
2023-01-11T10:55:17.211Z,1078.8
2023-01-11T10:57:00.858Z,1080
2023-01-11T10:58:44.586Z,1081.7
2023-01-11T11:00:28.324Z,1079.6
2023-01-11T11:02:11.901Z,1076.6
2023-01-11T11:03:55.509Z,1078.1
2023-01-11T11:05:39.344Z,1140.6
2023-01-11T11:07:23.127Z,1145.3
2023-01-11T11:09:06.826Z,1145.9
2023-01-11T11:10:50.375Z,1150.4
2023-01-11T11:12:34.198Z,1148.7
2023-01-11T11:14:17.836Z,1154.2
2023-01-11T11:16:01.614Z,1158.2
2023-01-11T11:17:45.285Z,1190
2023-01-11T11:19:28.938Z,1187.8
2023-01-11T11:21:12.736Z,1198.7
2023-01-11T11:22:56.452Z,1207.3
2023-01-11T11:24:40.172Z,1210.9
2023-01-11T11:26:23.792Z,1203.4
2023-01-11T11:28:07.517Z,1199.4
2023-01-11T11:29:51.167Z,1195.2
2023-01-11T11:31:34.842Z,1191.6
2023-01-11T11:33:18.648Z,1186.1
2023-01-11T11:35:02.322Z,1180.8
2023-01-11T11:36:45.874Z,1181.7
2023-01-11T11:38:29.754Z,1181.1
2023-01-11T11:40:13.266Z,1180.9
2023-01-11T11:41:57.145Z,1189.3
2023-01-11T11:43:40.833Z,1193.6
2023-01-11T11:45:24.471Z,1192.3
2023-01-11T11:47:08.238Z,1172.7
2023-01-11T11:48:51.773Z,1162.8
2023-01-11T11:50:35.623Z,1167.2
2023-01-11T11:52:19.337Z,1164.6
2023-01-11T11:54:02.900Z,1157.7
2023-01-11T11:55:46.595Z,1153.5
2023-01-11T11:57:30.309Z,1150.4
2023-01-11T11:59:14.001Z,1147.2
2023-01-11T12:00:57.711Z,1142.9
2023-01-11T12:02:41.411Z,1136.5
2023-01-11T12:04:25.144Z,1134.2
2023-01-11T12:06:08.818Z,1130.9
2023-01-11T12:07:52.521Z,1117.5
2023-01-11T12:09:36.218Z,1122.7
2023-01-11T12:11:19.923Z,1129.7
2023-01-11T12:13:03.639Z,1126.1
2023-01-11T12:14:47.330Z,1117
2023-01-11T12:16:31.037Z,1112.8
2023-01-11T12:18:14.730Z,1110.2
2023-01-11T12:19:58.431Z,1108.3
2023-01-11T12:21:42.144Z,1108.5
2023-01-11T12:23:25.848Z,1106.9
2023-01-11T12:25:09.544Z,1102
2023-01-11T12:26:53.253Z,1101.1
2023-01-11T12:28:36.939Z,1101.5
2023-01-11T12:30:20.670Z,1099.9
2023-01-11T12:32:04.352Z,1099.2
2023-01-11T12:33:48.065Z,1096.9
2023-01-11T12:35:31.757Z,1095.8
2023-01-11T12:37:15.451Z,1091.6
2023-01-11T12:38:59.156Z,1086.1
2023-01-11T12:40:42.862Z,1082.3
2023-01-11T12:42:26.571Z,1075.7
2023-01-11T12:44:10.268Z,1075
2023-01-11T12:45:53.979Z,1079.1
2023-01-11T12:47:38.614Z,1083
2023-01-11T12:49:21.380Z,1080.8
2023-01-11T12:51:05.093Z,1077.4
2023-01-11T12:52:48.785Z,1076.3
2023-01-11T12:54:32.492Z,1072.7
2023-01-11T12:56:16.189Z,1067.4
2023-01-11T12:57:59.919Z,1063.4
2023-01-11T12:59:43.608Z,1061.3
2023-01-11T13:01:27.303Z,1061.1
2023-01-11T13:03:11.011Z,1064.3
2023-01-11T13:04:54.711Z,1061.3
2023-01-11T13:06:38.410Z,1056.4
2023-01-11T13:08:22.118Z,1053.8
2023-01-11T13:10:05.822Z,1052.3
2023-01-11T13:11:49.561Z,1050.2
2023-01-11T13:13:33.225Z,1048.2
2023-01-11T13:15:16.932Z,1041.4
2023-01-11T13:17:00.629Z,1038.3
2023-01-11T13:18:44.367Z,1030.7
2023-01-11T13:20:28.030Z,1030.2
2023-01-11T13:22:11.741Z,1029.1
2023-01-11T13:23:55.447Z,1025.5
2023-01-11T13:25:39.145Z,1025.9
2023-01-11T13:27:22.855Z,1027.8
2023-01-11T13:29:06.560Z,1073.9
2023-01-11T13:32:33.967Z,1041.4
2023-01-11T13:34:17.660Z,1037.2
2023-01-11T13:36:01.368Z,1038.2
2023-01-11T13:37:45.087Z,1040.1
2023-01-11T13:39:28.771Z,1040.7
2023-01-11T13:41:12.478Z,1040.8
2023-01-11T13:42:56.195Z,1043
2023-01-11T13:44:39.872Z,1031.7
2023-01-11T13:46:23.601Z,1029.6
2023-01-11T13:48:07.288Z,1031.3
2023-01-11T13:49:51.278Z,1026.9
2023-01-11T13:51:34.703Z,1013.7
2023-01-11T13:53:18.391Z,1004.1
2023-01-11T13:55:02.080Z,997.8
2023-01-11T13:56:45.799Z,988.6
2023-01-11T13:58:29.491Z,988
2023-01-11T14:00:13.199Z,983.3
2023-01-11T14:01:56.908Z,975.2
2023-01-11T14:03:40.594Z,974.2
2023-01-11T14:05:24.317Z,969.1
2023-01-11T14:07:08.027Z,969.9
2023-01-11T14:08:51.721Z,967.8
2023-01-11T14:10:35.422Z,967.5
2023-01-11T14:12:19.135Z,970.7
2023-01-11T14:15:46.516Z,1115.2
2023-01-11T14:17:30.218Z,1161.1
2023-01-11T14:19:13.918Z,1083.5
2023-01-11T14:20:57.636Z,1033.9
2023-01-11T14:22:41.329Z,1026.1
2023-01-11T14:24:25.037Z,1027.6
2023-01-11T14:26:08.748Z,1029.4
2023-01-11T14:27:52.435Z,1029.2
2023-01-11T14:29:36.136Z,1026.5
2023-01-11T14:31:19.843Z,1026.7
2023-01-11T14:33:03.574Z,1025.8
2023-01-11T14:34:47.247Z,1017.5
2023-01-11T14:36:30.949Z,1021.3
2023-01-11T14:38:14.650Z,1023.4
2023-01-11T14:39:58.356Z,1022.3
2023-01-11T14:41:42.063Z,1018.1
2023-01-11T14:43:25.764Z,1016.3
2023-01-11T14:45:09.465Z,1017.4
2023-01-11T14:46:53.156Z,1015.4
2023-01-11T14:48:36.869Z,1009.9
2023-01-11T14:50:20.570Z,1010.2
2023-01-11T14:52:04.290Z,1005.1
2023-01-11T14:53:48.090Z,1001.8
2023-01-11T14:55:31.680Z,996.6
2023-01-11T14:57:15.382Z,994
2023-01-11T14:58:59.104Z,994.2
2023-01-11T15:00:42.790Z,996.4
2023-01-11T15:02:26.490Z,993.8
2023-01-11T15:04:10.288Z,1001.9
2023-01-11T15:05:53.890Z,1011
2023-01-11T15:07:37.618Z,1004.4
2023-01-11T15:09:21.303Z,995.5
2023-01-11T15:11:04.998Z,989.4
2023-01-11T15:12:48.707Z,989.9
2023-01-11T15:14:32.419Z,989.8
2023-01-11T15:16:16.109Z,982.9
2023-01-11T15:17:59.823Z,983.8
2023-01-11T15:19:43.555Z,985
2023-01-11T15:21:27.235Z,984.5
2023-01-11T15:23:10.921Z,986.1
2023-01-11T15:24:54.653Z,985.5
2023-01-11T15:26:38.352Z,981.4
2023-01-11T15:28:22.033Z,978.5
2023-01-11T15:30:05.733Z,981.8
2023-01-11T15:31:49.434Z,980.8
2023-01-11T15:33:33.177Z,980.5
2023-01-11T15:35:16.852Z,974.7
2023-01-11T15:37:00.544Z,974.6
2023-01-11T15:38:44.240Z,975.5
2023-01-11T15:40:27.949Z,976.6
2023-01-11T15:42:11.645Z,978.8
2023-01-11T15:43:55.351Z,975
2023-01-11T15:45:39.056Z,968.1
2023-01-11T15:47:22.753Z,961.9
2023-01-11T15:49:06.453Z,955.7
2023-01-11T15:50:50.159Z,957.8
2023-01-11T15:52:33.863Z,963.9
2023-01-11T15:54:17.562Z,973.2
2023-01-11T15:56:01.271Z,975.7
2023-01-11T15:57:44.967Z,974.3
2023-01-11T15:59:28.672Z,973.8
2023-01-11T16:01:12.372Z,972.6
2023-01-11T16:02:56.084Z,973.4
2023-01-11T16:04:39.790Z,974.5
2023-01-11T16:06:23.493Z,976.2
2023-01-11T16:08:07.206Z,974.6
2023-01-11T16:09:50.904Z,972.6
2023-01-11T16:11:34.592Z,976.5
2023-01-11T16:13:18.298Z,978
2023-01-11T16:15:02.016Z,976.7
2023-01-11T16:16:45.700Z,978.4
2023-01-11T16:18:29.403Z,981.7
2023-01-11T16:20:13.096Z,985
2023-01-11T16:21:56.810Z,984.6
2023-01-11T16:23:40.513Z,987.9
2023-01-11T16:25:24.212Z,989
2023-01-11T16:27:07.917Z,984.9
2023-01-11T16:28:51.632Z,980.4
2023-01-11T16:30:35.325Z,981.3
2023-01-11T16:32:19.029Z,979.3
2023-01-11T16:34:02.720Z,978.4
2023-01-11T16:35:46.427Z,977.3
2023-01-11T16:37:30.154Z,978.5
2023-01-11T16:39:13.837Z,981.9
2023-01-11T16:40:57.532Z,983.2
2023-01-11T16:42:41.237Z,980.9
2023-01-11T16:44:24.933Z,979.3
2023-01-11T16:46:08.675Z,980.7
2023-01-11T16:47:52.341Z,979.5
2023-01-11T16:49:36.053Z,978.6
2023-01-11T16:51:19.818Z,979.3
2023-01-11T16:53:03.445Z,983.4
2023-01-11T16:54:47.154Z,982.2
2023-01-11T16:56:30.856Z,985.9
2023-01-11T16:58:14.558Z,984.6
2023-01-11T16:59:58.262Z,986.9
2023-01-11T17:01:42.055Z,990.8
2023-01-11T17:03:25.675Z,992
2023-01-11T17:05:09.361Z,990.3
2023-01-11T17:06:53.072Z,992.9
2023-01-11T17:08:36.834Z,995.8
2023-01-11T17:10:20.481Z,998.5
2023-01-11T17:12:04.189Z,1001
2023-01-11T17:13:47.885Z,995.7
2023-01-11T17:15:31.603Z,989.4
2023-01-11T17:17:15.303Z,978.1
2023-01-11T17:18:59.014Z,976.9
2023-01-11T17:20:42.691Z,971.9
2023-01-11T17:22:26.393Z,955.4
2023-01-11T17:24:10.095Z,951.8
2023-01-11T17:25:53.803Z,948.4
2023-01-11T17:27:37.544Z,944.8
2023-01-11T17:29:21.226Z,936.7
2023-01-11T17:31:04.906Z,935
2023-01-11T17:32:48.616Z,931.9
2023-01-11T17:34:32.322Z,932.7
2023-01-11T17:36:16.016Z,933.6
2023-01-11T17:37:59.716Z,937.4
2023-01-11T17:39:43.420Z,938.5
2023-01-11T17:41:27.129Z,939.6
2023-01-11T17:43:10.826Z,936.8
2023-01-11T17:44:54.531Z,936.6
2023-01-11T17:46:38.248Z,942.4
2023-01-11T17:48:21.957Z,953.3
2023-01-11T17:50:05.631Z,954.2
2023-01-11T17:51:49.339Z,951.3
2023-01-11T17:53:33.051Z,951.9
2023-01-11T17:55:16.732Z,953.8
2023-01-11T17:57:00.444Z,956
2023-01-11T17:58:44.151Z,957.8
2023-01-11T18:00:27.846Z,956.9
2023-01-11T18:02:11.565Z,960.8
2023-01-11T18:03:55.254Z,960.7
2023-01-11T18:05:38.964Z,967.8
2023-01-11T18:07:22.662Z,964.2
2023-01-11T18:09:06.365Z,976.1
2023-01-11T18:10:50.069Z,1183.3
2023-01-11T18:12:33.792Z,1216
2023-01-11T18:14:17.473Z,1209.4
2023-01-11T18:16:01.179Z,1218.5
2023-01-11T18:17:44.879Z,1213.4
2023-01-11T18:19:28.579Z,1206
2023-01-11T18:21:12.287Z,1206.5
2023-01-11T18:22:55.990Z,1213.6
2023-01-11T18:24:39.705Z,1221.2
2023-01-11T18:26:23.395Z,1230.9
2023-01-11T18:28:07.085Z,1232.3
2023-01-11T18:29:50.822Z,1234.4
2023-01-11T18:31:34.500Z,1235.1
2023-01-11T18:33:18.200Z,1232.2
2023-01-11T18:35:01.909Z,1231.9
2023-01-11T18:36:45.612Z,1225.8
2023-01-11T18:38:29.334Z,1201.3
2023-01-11T18:40:13.018Z,1180.7
2023-01-11T18:41:56.718Z,1169.8
2023-01-11T18:43:40.422Z,1167.3
2023-01-11T18:45:24.134Z,1163.6
2023-01-11T18:47:07.821Z,1161.6
2023-01-11T18:48:51.542Z,1169.6
2023-01-11T18:50:35.246Z,1175.2
2023-01-11T18:52:18.919Z,1176.8
2023-01-11T18:54:02.647Z,1174.5
2023-01-11T18:55:46.382Z,1177.1
2023-01-11T18:57:30.048Z,1189.1
2023-01-11T18:59:13.753Z,1186.4
2023-01-11T19:00:57.458Z,1180
2023-01-11T19:02:41.152Z,1181.7
2023-01-11T19:04:24.852Z,1189.7
2023-01-11T19:06:08.549Z,1200.7
2023-01-11T19:07:52.252Z,1204.6
2023-01-11T19:09:35.964Z,1215.5
2023-01-11T19:11:19.670Z,1213.8
2023-01-11T19:13:03.360Z,1213.3
2023-01-11T19:14:47.157Z,1214.9
2023-01-11T19:16:30.833Z,1223
2023-01-11T19:18:14.473Z,1235.6
2023-01-11T19:19:58.168Z,1253
2023-01-11T19:21:41.872Z,1260.1
2023-01-11T19:23:25.578Z,1265.7
2023-01-11T19:25:09.282Z,1275.8
2023-01-11T19:26:52.991Z,1281.1
2023-01-11T19:28:36.685Z,1276.2
2023-01-11T19:30:20.403Z,1265.7
2023-01-11T19:32:04.088Z,1263.8
2023-01-11T19:33:47.787Z,1280.1
2023-01-11T19:35:31.529Z,1285.7
2023-01-11T19:37:15.193Z,1286.4
2023-01-11T19:38:58.895Z,1279.7
2023-01-11T19:40:42.602Z,1239
2023-01-11T19:42:26.307Z,1235.9
2023-01-11T19:44:10.022Z,1252
2023-01-11T19:45:53.718Z,1265.7
2023-01-11T19:47:37.413Z,1273.8
2023-01-11T19:49:21.111Z,1277.3
2023-01-11T19:51:04.821Z,1283.7
2023-01-11T19:52:48.536Z,1283.8
2023-01-11T19:54:32.236Z,1280.9
2023-01-11T19:56:15.930Z,1280.5
2023-01-11T19:57:59.666Z,1274.9
2023-01-11T19:59:43.359Z,1272.2
2023-01-11T20:01:27.035Z,1271.2
2023-01-11T20:03:10.742Z,1267.3
2023-01-11T20:04:54.463Z,1258.8
2023-01-11T20:06:38.141Z,1235.1
2023-01-11T20:08:21.858Z,1214.6
2023-01-11T20:10:05.597Z,1206
2023-01-11T20:11:49.249Z,1197.1
2023-01-11T20:13:32.964Z,1192.9
2023-01-11T20:15:16.653Z,1192.4
2023-01-11T20:17:00.366Z,1183.4
2023-01-11T20:18:44.070Z,1179.4
2023-01-11T20:20:27.768Z,1168.8
2023-01-11T20:22:11.463Z,1160.1
2023-01-11T20:23:55.171Z,1161
2023-01-11T20:25:38.874Z,1166.1
2023-01-11T20:27:22.600Z,1161.1
2023-01-11T20:29:06.279Z,1156
2023-01-11T20:30:49.988Z,1150.3
2023-01-11T20:32:33.683Z,1153.6
2023-01-11T20:34:17.396Z,1152.4
2023-01-11T20:36:01.091Z,1150.4
2023-01-11T20:37:44.795Z,1145.7
2023-01-11T20:39:28.487Z,1142.2
2023-01-11T20:41:12.198Z,1140.1
2023-01-11T20:42:55.901Z,1141.3
2023-01-11T20:44:39.605Z,1134.6
2023-01-11T20:46:23.310Z,1127.4
2023-01-11T20:48:07.090Z,1125.6
2023-01-11T20:49:50.718Z,1124
2023-01-11T20:51:34.411Z,1123.6
2023-01-11T20:53:18.114Z,1119.5
2023-01-11T20:55:01.818Z,1110.9
2023-01-11T20:56:45.523Z,1109.3
2023-01-11T20:58:29.247Z,1106.1
2023-01-11T21:00:13.042Z,1100.7
2023-01-11T21:01:56.637Z,1099.8
2023-01-11T21:03:40.333Z,1095.3
2023-01-11T21:05:24.036Z,1093.7
2023-01-11T21:07:07.736Z,1096.8
2023-01-11T21:08:51.440Z,1094.2
2023-01-11T21:10:35.142Z,1093.5
2023-01-11T21:12:18.841Z,1091.9
2023-01-11T21:14:02.676Z,1092.7
2023-01-11T21:15:46.256Z,1093.6
2023-01-11T21:17:29.962Z,1089.8
2023-01-11T21:19:13.660Z,1087.5
2023-01-11T21:20:57.359Z,1091
2023-01-11T21:22:41.092Z,1125.7
2023-01-11T21:24:24.766Z,1126.3
2023-01-11T21:26:08.464Z,1117.5
2023-01-11T21:27:52.172Z,1112.8
2023-01-11T21:29:35.928Z,1114.7
2023-01-11T21:31:19.568Z,1128.5
2023-01-11T21:33:03.290Z,1140
2023-01-11T21:34:46.982Z,1144
2023-01-11T21:36:30.722Z,1140.9
2023-01-11T21:38:14.388Z,1136.2
2023-01-11T21:39:58.084Z,1136.2
2023-01-11T21:41:41.795Z,1133.9
2023-01-11T21:43:25.493Z,1134.3
2023-01-11T21:45:09.190Z,1132.6
2023-01-11T21:46:52.901Z,1121.6
2023-01-11T21:48:36.609Z,1113.5
2023-01-11T21:50:20.306Z,1120.9
2023-01-11T21:52:04.037Z,1120.5
2023-01-11T21:53:47.743Z,1113.7
2023-01-11T21:55:31.643Z,1113
2023-01-11T21:57:15.131Z,1108.8
2023-01-11T21:58:58.820Z,1099
2023-01-11T22:00:42.526Z,1099.3
2023-01-11T22:02:26.356Z,1095.1